createdAt,value
2019-01-17T00:02:46.451Z,-1.90
2019-01-17T00:05:49.646Z,-1.90
2019-01-17T00:08:43.671Z,-1.90
2019-01-17T00:11:41.042Z,-1.90
2019-01-17T00:14:23.282Z,-2.00
2019-01-17T00:17:10.312Z,-2.00
2019-01-17T00:20:10.491Z,-2.00
2019-01-17T00:22:57.443Z,-2.00
2019-01-17T00:25:44.189Z,-2.00
2019-01-17T00:28:35.702Z,-2.00
2019-01-17T00:31:36.651Z,-2.00
2019-01-17T00:34:31.896Z,-2.00
2019-01-17T00:37:40.794Z,-2.00
2019-01-17T00:40:21.612Z,-1.90
2019-01-17T00:43:11.984Z,-1.90
2019-01-17T00:46:03.462Z,-1.90
2019-01-17T00:48:40.689Z,-1.80
2019-01-17T00:51:29.078Z,-1.70
2019-01-17T00:54:17.420Z,-1.70
2019-01-17T00:57:13.127Z,-1.70
2019-01-17T01:00:04.534Z,-1.70
2019-01-17T01:02:59.094Z,-1.70
2019-01-17T01:05:51.843Z,-1.80
2019-01-17T01:08:40.258Z,-1.80
2019-01-17T01:11:33.368Z,-1.80
2019-01-17T01:14:30.443Z,-1.80
2019-01-17T01:17:31.427Z,-1.80
2019-01-17T01:20:19.375Z,-1.80
2019-01-17T01:23:19.678Z,-1.80
2019-01-17T01:26:01.040Z,-1.80
2019-01-17T01:28:48.393Z,-1.80
2019-01-17T01:31:26.152Z,-1.90
2019-01-17T01:34:08.632Z,-1.90
2019-01-17T01:37:02.810Z,-1.90
2019-01-17T01:39:55.935Z,-1.90
2019-01-17T01:42:52.910Z,-1.90
2019-01-17T01:45:37.889Z,-1.90
2019-01-17T01:48:26.272Z,-1.90
2019-01-17T01:51:16.275Z,-1.90
2019-01-17T01:53:46.847Z,-1.90
2019-01-17T01:56:16.141Z,-1.90
2019-01-17T01:58:45.571Z,-1.90
2019-01-17T02:01:15.388Z,-1.90
2019-01-17T02:03:44.795Z,-1.90
2019-01-17T02:06:14.273Z,-1.80
2019-01-17T02:08:49.166Z,-1.80
2019-01-17T02:11:21.305Z,-1.80
2019-01-17T02:13:51.006Z,-1.90
2019-01-17T02:16:22.762Z,-1.90
2019-01-17T02:18:52.286Z,-1.90
2019-01-17T02:21:21.737Z,-1.90
2019-01-17T02:23:52.345Z,-2.00
2019-01-17T02:26:22.112Z,-2.00
2019-01-17T02:28:54.607Z,-2.00
2019-01-17T02:31:25.998Z,-2.00
2019-01-17T02:33:56.566Z,-2.00
2019-01-17T02:36:30.042Z,-2.10
2019-01-17T02:38:59.566Z,-2.00
2019-01-17T02:41:32.799Z,-2.00
2019-01-17T02:44:02.393Z,-1.90
2019-01-17T02:46:32.177Z,-1.90
2019-01-17T02:49:04.330Z,-1.90
2019-01-17T02:51:33.670Z,-1.80
2019-01-17T02:54:03.177Z,-1.80
2019-01-17T02:56:33.098Z,-1.80
2019-01-17T02:59:06.287Z,-1.70
2019-01-17T03:01:41.484Z,-1.70
2019-01-17T03:04:10.998Z,-1.70
2019-01-17T03:06:43.425Z,-1.70
2019-01-17T03:09:19.093Z,-1.80
2019-01-17T03:11:48.550Z,-1.80
2019-01-17T03:14:18.983Z,-1.90
2019-01-17T03:16:48.510Z,-1.90
2019-01-17T03:19:18.016Z,-1.90
2019-01-17T03:21:48.769Z,-2.00
2019-01-17T03:24:18.237Z,-2.00
2019-01-17T03:26:53.573Z,-2.00
2019-01-17T03:29:27.515Z,-2.10
2019-01-17T03:32:02.289Z,-2.10
2019-01-17T03:34:31.780Z,-2.10
2019-01-17T03:37:01.474Z,-2.10
2019-01-17T03:39:33.799Z,-2.00
2019-01-17T03:42:03.353Z,-2.00
2019-01-17T03:44:32.895Z,-1.90
2019-01-17T03:47:04.632Z,-1.90
2019-01-17T03:49:34.024Z,-1.90
2019-01-17T03:52:08.409Z,-1.80
2019-01-17T03:54:40.839Z,-1.70
2019-01-17T03:57:16.235Z,-1.70
2019-01-17T03:59:45.656Z,-1.70
2019-01-17T04:02:15.206Z,-1.60
2019-01-17T04:04:44.786Z,-1.70
2019-01-17T04:07:14.297Z,-1.70
2019-01-17T04:09:43.658Z,-1.60
2019-01-17T04:12:13.072Z,-1.40
2019-01-17T04:14:42.583Z,-1.40
2019-01-17T04:17:12.084Z,-1.30
2019-01-17T04:19:41.456Z,-1.30
2019-01-17T04:22:10.958Z,-1.20
2019-01-17T04:24:42.234Z,-1.00
2019-01-17T04:27:11.583Z,-0.90
2019-01-17T04:29:43.708Z,-0.90
2019-01-17T04:32:13.000Z,-0.90
2019-01-17T04:34:44.262Z,-0.80
2019-01-17T04:37:15.737Z,-0.80
2019-01-17T04:39:46.081Z,-0.80
2019-01-17T04:42:16.983Z,-0.70
2019-01-17T04:44:46.384Z,-0.70
2019-01-17T04:47:18.293Z,-0.70
2019-01-17T04:49:47.692Z,-0.70
2019-01-17T04:52:17.103Z,-0.70
2019-01-17T04:54:51.163Z,-0.70
2019-01-17T04:57:25.131Z,-0.70
2019-01-17T04:59:57.707Z,-0.70
2019-01-17T05:02:27.101Z,-0.70
2019-01-17T05:04:56.587Z,-0.70
2019-01-17T05:07:28.921Z,-0.70
2019-01-17T05:09:58.392Z,-0.80
2019-01-17T05:12:27.788Z,-0.80
2019-01-17T05:14:57.228Z,-0.80
2019-01-17T05:17:26.741Z,-0.80
2019-01-17T05:19:56.190Z,-0.80
2019-01-17T05:22:25.687Z,-0.90
2019-01-17T05:24:55.178Z,-0.90
2019-01-17T05:27:26.030Z,-1.00
2019-01-17T05:29:57.503Z,-1.00
2019-01-17T05:32:28.652Z,-1.00
2019-01-17T05:35:01.147Z,-1.00
2019-01-17T05:37:30.576Z,-1.10
2019-01-17T05:40:00.996Z,-1.00
2019-01-17T05:42:32.571Z,-1.00
2019-01-17T05:45:02.013Z,-1.10
2019-01-17T05:47:31.456Z,-1.10
2019-01-17T05:50:15.504Z,-1.10
2019-01-17T05:52:46.135Z,-1.10
2019-01-17T05:55:20.107Z,-1.10
2019-01-17T05:57:49.904Z,-1.00
2019-01-17T06:00:28.711Z,-1.00
2019-01-17T06:03:03.495Z,-1.00
2019-01-17T06:05:33.103Z,-1.00
2019-01-17T06:08:02.585Z,-1.00
2019-01-17T06:10:32.086Z,-1.00
2019-01-17T06:13:01.865Z,-1.00
2019-01-17T06:15:31.675Z,-0.90
2019-01-17T06:18:02.674Z,-0.90
2019-01-17T06:20:32.055Z,-0.80
2019-01-17T06:23:02.696Z,-0.80
2019-01-17T06:25:32.173Z,-0.80
2019-01-17T06:28:01.643Z,-0.80
2019-01-17T06:30:32.905Z,-0.80
2019-01-17T06:33:03.928Z,-0.90
2019-01-17T06:35:33.524Z,-1.00
2019-01-17T06:38:07.364Z,-0.90
2019-01-17T06:40:39.500Z,-0.90
2019-01-17T06:43:08.850Z,-1.00
2019-01-17T06:45:38.221Z,-0.90
2019-01-17T06:48:14.213Z,-0.90
2019-01-17T06:50:46.440Z,-0.90
2019-01-17T06:53:17.187Z,-0.70
2019-01-17T06:55:46.720Z,-0.70
2019-01-17T06:58:18.401Z,-0.50
2019-01-17T07:00:49.845Z,-0.50
2019-01-17T07:03:19.332Z,-0.40
2019-01-17T07:05:48.838Z,-0.40
2019-01-17T07:08:20.024Z,-0.40
2019-01-17T07:10:49.539Z,-0.40
2019-01-17T07:13:19.121Z,-0.40
2019-01-17T07:15:48.671Z,-0.30
2019-01-17T07:18:18.114Z,-0.20
2019-01-17T07:20:47.668Z,-0.10
2019-01-17T07:23:16.830Z,0.00
2019-01-17T07:25:45.888Z,0.10
2019-01-17T07:28:14.891Z,0.20
2019-01-17T07:30:43.877Z,0.30
2019-01-17T07:33:12.928Z,0.30
2019-01-17T07:35:42.004Z,0.40
2019-01-17T07:38:11.098Z,0.50
2019-01-17T07:40:40.072Z,0.60
2019-01-17T07:43:09.216Z,0.70
2019-01-17T07:45:38.288Z,0.80
2019-01-17T07:48:07.385Z,0.90
2019-01-17T07:50:36.385Z,1.00
2019-01-17T07:53:05.538Z,1.10
2019-01-17T07:55:34.593Z,1.20
2019-01-17T07:58:03.653Z,1.20
2019-01-17T08:00:32.705Z,1.20
2019-01-17T08:03:02.307Z,1.30
2019-01-17T08:05:31.917Z,1.30
2019-01-17T08:08:01.400Z,1.30
2019-01-17T08:10:30.854Z,1.40
2019-01-17T08:13:00.333Z,1.50
2019-01-17T08:15:29.824Z,1.50
2019-01-17T08:17:59.365Z,1.60
2019-01-17T08:20:28.772Z,1.60
2019-01-17T08:22:58.329Z,1.70
2019-01-17T08:25:29.112Z,1.80
2019-01-17T08:27:58.850Z,1.80
2019-01-17T08:30:29.031Z,1.80
2019-01-17T08:32:58.132Z,1.90
2019-01-17T08:35:27.316Z,1.90
2019-01-17T08:37:56.489Z,1.90
2019-01-17T08:40:30.979Z,2.00
2019-01-17T08:43:00.122Z,2.00
2019-01-17T08:45:29.203Z,2.00
2019-01-17T08:47:58.297Z,2.10
2019-01-17T08:50:28.140Z,2.20
2019-01-17T08:52:57.417Z,2.20
2019-01-17T08:55:26.462Z,2.30
2019-01-17T08:57:55.584Z,2.30
2019-01-17T09:00:25.299Z,2.40
2019-01-17T09:02:54.353Z,2.60
2019-01-17T09:05:23.348Z,2.70
2019-01-17T09:07:52.317Z,2.90
2019-01-17T09:10:24.044Z,3.20
2019-01-17T09:12:53.025Z,3.50
2019-01-17T09:15:24.804Z,3.90
2019-01-17T09:17:57.224Z,4.20
2019-01-17T09:20:26.848Z,4.50
2019-01-17T09:22:56.694Z,4.80
2019-01-17T09:25:25.751Z,4.90
2019-01-17T09:27:54.996Z,5.00
2019-01-17T09:30:24.180Z,5.10
2019-01-17T09:32:53.363Z,5.20
2019-01-17T09:35:22.579Z,5.20
2019-01-17T09:37:51.609Z,5.20
2019-01-17T09:40:21.822Z,5.20
2019-01-17T09:42:50.977Z,5.20
2019-01-17T09:45:20.136Z,5.10
2019-01-17T09:47:49.199Z,5.10
2019-01-17T09:50:22.891Z,5.20
2019-01-17T09:52:52.067Z,5.10
2019-01-17T09:55:21.139Z,5.20
2019-01-17T09:57:50.313Z,5.30
2019-01-17T10:00:25.196Z,5.30
2019-01-17T10:02:54.742Z,5.40
2019-01-17T10:05:23.987Z,5.50
2019-01-17T10:07:53.318Z,5.60
2019-01-17T10:10:23.906Z,5.70
2019-01-17T10:12:53.279Z,5.80
2019-01-17T10:15:29.176Z,5.80
2019-01-17T10:18:25.534Z,5.80
2019-01-17T10:21:31.038Z,5.90
2019-01-17T10:24:39.019Z,6.00
2019-01-17T10:27:25.974Z,6.10
2019-01-17T10:30:35.053Z,6.20
2019-01-17T10:33:20.612Z,6.30
2019-01-17T10:36:24.114Z,6.40
2019-01-17T10:39:20.054Z,6.70
2019-01-17T10:42:27.935Z,7.30
2019-01-17T10:45:16.615Z,7.50
2019-01-17T10:48:34.912Z,7.70
2019-01-17T10:51:56.889Z,7.60
2019-01-17T10:54:59.993Z,7.40
2019-01-17T10:58:13.677Z,7.20
2019-01-17T11:01:12.858Z,7.00
2019-01-17T11:04:17.221Z,6.90
2019-01-17T11:07:23.640Z,6.80
2019-01-17T11:10:38.678Z,6.80
2019-01-17T11:13:43.665Z,6.80
2019-01-17T11:16:53.442Z,6.80
2019-01-17T11:20:03.512Z,6.70
2019-01-17T11:22:51.887Z,6.80
2019-01-17T11:25:32.492Z,6.90
2019-01-17T11:28:45.486Z,7.00
2019-01-17T11:31:47.440Z,7.30
2019-01-17T11:34:43.966Z,7.60
2019-01-17T11:38:02.125Z,8.00
2019-01-17T11:40:59.821Z,8.00
2019-01-17T11:43:42.512Z,7.80
2019-01-17T11:46:57.858Z,7.80
2019-01-17T11:50:16.778Z,7.90
2019-01-17T11:53:31.924Z,7.90
2019-01-17T11:56:48.355Z,8.00
2019-01-17T11:59:54.113Z,8.00
2019-01-17T12:02:46.342Z,8.20
2019-01-17T12:05:15.177Z,8.40
2019-01-17T12:07:44.065Z,9.00
2019-01-17T12:10:14.361Z,9.30
2019-01-17T12:12:43.448Z,9.20
2019-01-17T12:15:12.646Z,9.00
2019-01-17T12:17:41.685Z,8.80
2019-01-17T12:20:10.657Z,8.60
2019-01-17T12:22:39.636Z,8.70
2019-01-17T12:25:08.843Z,8.60
2019-01-17T12:27:42.454Z,8.50
2019-01-17T12:30:12.545Z,8.40
2019-01-17T12:32:41.425Z,8.40
2019-01-17T12:35:11.506Z,8.30
2019-01-17T12:37:40.396Z,8.30
2019-01-17T12:40:12.038Z,8.40
2019-01-17T12:42:41.014Z,8.30
2019-01-17T12:45:10.642Z,8.30
2019-01-17T12:47:39.512Z,8.20
2019-01-17T12:50:19.386Z,8.00
2019-01-17T12:52:48.211Z,8.00
2019-01-17T12:55:17.442Z,7.90
2019-01-17T12:57:46.403Z,7.90
2019-01-17T13:00:19.961Z,7.90
2019-01-17T13:02:49.161Z,7.90
2019-01-17T13:05:18.137Z,7.80
2019-01-17T13:07:47.037Z,7.80
2019-01-17T13:10:16.169Z,7.70
2019-01-17T13:12:45.222Z,7.70
2019-01-17T13:15:14.208Z,7.60
2019-01-17T13:17:43.269Z,7.60
2019-01-17T13:20:15.106Z,7.60
2019-01-17T13:22:44.342Z,7.60
2019-01-17T13:25:16.331Z,7.60
2019-01-17T13:27:45.771Z,7.50
2019-01-17T13:30:17.373Z,7.50
2019-01-17T13:32:46.551Z,7.40
2019-01-17T13:35:15.997Z,7.30
2019-01-17T13:37:44.894Z,7.20
2019-01-17T13:40:16.927Z,7.20
2019-01-17T13:42:45.852Z,7.20
2019-01-17T13:45:16.345Z,7.10
2019-01-17T13:47:45.261Z,7.00
2019-01-17T13:50:14.346Z,6.90
2019-01-17T13:52:43.318Z,6.90
2019-01-17T13:55:12.930Z,6.80
2019-01-17T13:57:41.757Z,6.80
2019-01-17T14:00:14.593Z,6.80
2019-01-17T14:02:44.257Z,6.70
2019-01-17T14:05:14.883Z,6.70
2019-01-17T14:07:44.170Z,6.70
2019-01-17T14:10:13.745Z,6.70
2019-01-17T14:12:42.708Z,6.70
2019-01-17T14:15:23.729Z,6.70
2019-01-17T14:17:52.873Z,6.70
2019-01-17T14:20:21.829Z,6.60
2019-01-17T14:22:50.723Z,6.60
2019-01-17T14:25:20.271Z,6.50
2019-01-17T14:27:49.163Z,6.40
2019-01-17T14:30:23.626Z,6.30
2019-01-17T14:32:53.070Z,6.30
2019-01-17T14:35:22.071Z,6.20
2019-01-17T14:37:51.306Z,6.30
2019-01-17T14:40:20.545Z,6.30
2019-01-17T14:42:49.449Z,6.30
2019-01-17T14:45:19.205Z,6.30
2019-01-17T14:47:48.093Z,6.30
2019-01-17T14:50:25.525Z,6.30
2019-01-17T14:52:54.732Z,6.20
2019-01-17T14:55:23.719Z,6.30
2019-01-17T14:57:52.685Z,6.20
2019-01-17T15:00:24.140Z,6.20
2019-01-17T15:02:53.100Z,6.20
2019-01-17T15:05:22.088Z,6.20
2019-01-17T15:07:51.098Z,6.10
2019-01-17T15:10:29.120Z,6.10
2019-01-17T15:12:58.257Z,6.10
2019-01-17T15:15:27.422Z,6.10
2019-01-17T15:17:56.319Z,6.10
2019-01-17T15:20:25.539Z,6.00
2019-01-17T15:22:54.432Z,5.90
2019-01-17T15:25:23.277Z,5.90
2019-01-17T15:27:52.256Z,5.80
2019-01-17T15:30:23.561Z,5.70
2019-01-17T15:32:52.694Z,5.70
2019-01-17T15:35:21.583Z,5.70
2019-01-17T15:37:50.801Z,5.60
2019-01-17T15:40:27.724Z,5.60
2019-01-17T15:42:57.006Z,5.60
2019-01-17T15:45:25.829Z,5.60
2019-01-17T15:47:54.661Z,5.60
2019-01-17T15:50:23.569Z,5.60
2019-01-17T15:52:52.673Z,5.50
2019-01-17T15:55:21.925Z,5.50
2019-01-17T15:57:51.170Z,5.50
2019-01-17T16:00:25.646Z,5.50
2019-01-17T16:02:54.783Z,5.40
2019-01-17T16:05:24.016Z,5.30
2019-01-17T16:07:53.191Z,5.30
2019-01-17T16:10:22.476Z,5.30
2019-01-17T16:12:51.635Z,5.20
2019-01-17T16:15:23.135Z,5.10
2019-01-17T16:17:56.537Z,5.00
2019-01-17T16:20:25.656Z,4.90
2019-01-17T16:22:54.962Z,4.80
2019-01-17T16:25:24.184Z,4.80
2019-01-17T16:27:53.479Z,4.70
2019-01-17T16:30:28.150Z,4.60
2019-01-17T16:32:59.056Z,4.50
2019-01-17T16:35:32.143Z,4.50
2019-01-17T16:38:01.440Z,4.40
2019-01-17T16:40:30.717Z,4.30
2019-01-17T16:43:00.009Z,4.10
2019-01-17T16:45:35.216Z,4.10
2019-01-17T16:48:00.110Z,4.00
2019-01-17T16:50:29.263Z,3.90
2019-01-17T16:52:58.564Z,3.90
2019-01-17T16:55:27.767Z,3.90
2019-01-17T16:57:56.995Z,3.90
2019-01-17T17:00:28.761Z,3.90
2019-01-17T17:02:57.664Z,3.90
2019-01-17T17:05:29.165Z,3.80
2019-01-17T17:07:58.599Z,3.80
2019-01-17T17:10:34.815Z,3.70
2019-01-17T17:13:04.165Z,3.70
2019-01-17T17:15:33.339Z,3.70
2019-01-17T17:18:02.507Z,3.70
2019-01-17T17:20:31.747Z,3.60
2019-01-17T17:23:01.587Z,3.60
2019-01-17T17:25:32.260Z,3.60
2019-01-17T17:28:01.574Z,3.60
2019-01-17T17:30:30.677Z,3.60
2019-01-17T17:32:59.920Z,3.60
2019-01-17T17:35:29.079Z,3.60
2019-01-17T17:37:58.262Z,3.60
2019-01-17T17:40:29.619Z,3.60
2019-01-17T17:42:58.869Z,3.60
2019-01-17T17:45:28.588Z,3.70
2019-01-17T17:48:03.129Z,3.70
2019-01-17T17:50:32.409Z,3.70
2019-01-17T17:53:01.887Z,3.70
2019-01-17T17:55:31.518Z,3.70
2019-01-17T17:58:04.297Z,3.70
2019-01-17T18:00:41.533Z,3.70
2019-01-17T18:03:12.203Z,3.70
2019-01-17T18:05:44.548Z,3.70
2019-01-17T18:08:14.212Z,3.70
2019-01-17T18:10:46.632Z,3.80
2019-01-17T18:13:16.374Z,3.80
2019-01-17T18:15:48.894Z,3.80
2019-01-17T18:18:18.705Z,3.80
2019-01-17T18:20:48.322Z,3.80
2019-01-17T18:23:17.822Z,3.80
2019-01-17T18:25:51.644Z,3.80
2019-01-17T18:28:21.286Z,3.80
2019-01-17T18:30:52.742Z,3.80
2019-01-17T18:33:24.706Z,3.80
2019-01-17T18:35:54.166Z,3.70
2019-01-17T18:38:23.662Z,3.70
2019-01-17T18:40:55.678Z,3.70
2019-01-17T18:43:25.190Z,3.60
2019-01-17T18:45:54.660Z,3.60
2019-01-17T18:48:24.183Z,3.60
2019-01-17T18:50:56.881Z,3.60
2019-01-17T18:53:26.463Z,3.70
2019-01-17T18:55:58.714Z,3.60
2019-01-17T18:58:28.178Z,3.70
2019-01-17T19:00:57.622Z,3.70
2019-01-17T19:03:27.150Z,3.60
2019-01-17T19:05:56.581Z,3.60
2019-01-17T19:08:28.982Z,3.60
2019-01-17T19:11:01.601Z,3.70
2019-01-17T19:13:31.049Z,3.60
2019-01-17T19:16:02.512Z,3.60
2019-01-17T19:18:35.062Z,3.60
2019-01-17T19:21:07.321Z,3.60
2019-01-17T19:23:36.822Z,3.60
2019-01-17T19:26:09.243Z,3.60
2019-01-17T19:28:38.821Z,3.60
2019-01-17T19:31:08.351Z,3.60
2019-01-17T19:33:37.824Z,3.60
2019-01-17T19:36:12.114Z,3.60
2019-01-17T19:38:41.599Z,3.70
2019-01-17T19:41:11.404Z,3.70
2019-01-17T19:43:42.073Z,3.70
2019-01-17T19:46:11.442Z,3.80
2019-01-17T19:48:46.675Z,3.80
2019-01-17T19:51:20.233Z,3.80
2019-01-17T19:53:55.632Z,3.80
2019-01-17T19:56:25.208Z,3.80
2019-01-17T19:58:56.970Z,3.90
2019-01-17T20:01:30.280Z,3.90
2019-01-17T20:03:59.950Z,4.00
2019-01-17T20:06:29.509Z,4.00
2019-01-17T20:09:02.181Z,4.00
2019-01-17T20:11:31.484Z,4.00
2019-01-17T20:14:01.131Z,4.00
2019-01-17T20:16:33.788Z,4.00
2019-01-17T20:19:09.981Z,3.90
2019-01-17T20:21:39.203Z,3.70
2019-01-17T20:24:11.965Z,3.50
2019-01-17T20:26:46.514Z,3.30
2019-01-17T20:29:16.555Z,3.10
2019-01-17T20:31:52.934Z,2.90
2019-01-17T20:34:23.858Z,2.70
2019-01-17T20:36:56.083Z,2.60
2019-01-17T20:39:25.746Z,2.60
2019-01-17T20:41:56.956Z,2.50
2019-01-17T20:44:29.228Z,2.50
2019-01-17T20:46:58.998Z,2.50
2019-01-17T20:49:29.117Z,2.40
2019-01-17T20:52:00.108Z,2.40
2019-01-17T20:54:29.913Z,2.40
2019-01-17T20:56:59.916Z,2.40
2019-01-17T20:59:32.750Z,2.40
2019-01-17T21:02:16.025Z,2.40
2019-01-17T21:04:47.760Z,2.40
2019-01-17T21:07:18.299Z,2.40
2019-01-17T21:09:52.596Z,2.40
2019-01-17T21:12:23.547Z,2.40
2019-01-17T21:14:57.050Z,2.30
2019-01-17T21:17:39.087Z,2.30
2019-01-17T21:23:11.468Z,2.20
2019-01-17T21:25:40.832Z,2.10
2019-01-17T21:28:17.768Z,2.10
2019-01-17T21:30:51.572Z,2.00
2019-01-17T21:33:23.578Z,1.90
2019-01-17T21:35:56.036Z,1.80
2019-01-17T21:38:31.320Z,1.90
2019-01-17T21:41:01.313Z,1.90
2019-01-17T21:43:34.676Z,2.00
2019-01-17T21:46:08.234Z,2.00
2019-01-17T21:48:35.073Z,2.10
2019-01-17T21:51:14.166Z,2.10
2019-01-17T21:53:43.649Z,2.10
2019-01-17T21:57:17.643Z,2.00
2019-01-17T22:00:34.571Z,2.00
2019-01-17T22:03:20.540Z,1.90
2019-01-17T22:21:04.805Z,1.80
2019-01-17T22:23:48.237Z,1.80
2019-01-17T22:26:27.154Z,1.80
2019-01-17T22:29:02.485Z,1.80
2019-01-17T22:31:37.952Z,1.80
2019-01-17T22:34:19.015Z,1.80
2019-01-17T22:37:04.788Z,1.90
2019-01-17T22:39:39.399Z,1.90
2019-01-17T22:42:13.435Z,1.90
2019-01-17T22:44:47.368Z,1.90
2019-01-17T22:47:22.173Z,1.90
2019-01-17T22:49:56.758Z,1.80
2019-01-17T22:52:30.172Z,1.90
2019-01-17T22:55:06.092Z,1.90
2019-01-17T22:57:39.020Z,1.90
2019-01-17T23:00:53.201Z,2.00
2019-01-17T23:03:54.649Z,2.00
2019-01-17T23:06:46.990Z,2.00
2019-01-17T23:09:20.511Z,1.90
2019-01-17T23:11:53.368Z,1.80
2019-01-17T23:14:28.906Z,1.80
2019-01-17T23:17:05.590Z,1.70
2019-01-17T23:19:39.563Z,1.60
2019-01-17T23:22:12.059Z,1.60
2019-01-17T23:24:46.070Z,1.50
2019-01-17T23:27:18.877Z,1.40
2019-01-17T23:29:52.293Z,1.40
2019-01-17T23:32:24.868Z,1.40
2019-01-17T23:34:58.779Z,1.40
2019-01-17T23:37:31.682Z,1.40
2019-01-17T23:40:03.847Z,1.40
2019-01-17T23:42:41.204Z,1.30
2019-01-17T23:45:15.744Z,1.30
2019-01-17T23:47:50.525Z,1.40
2019-01-17T23:50:23.789Z,1.40
2019-01-17T23:52:58.435Z,1.40
2019-01-17T23:55:28.711Z,1.40
2019-01-17T23:57:58.774Z,1.40
